createdAt,value
2022-08-18T00:00:20.371Z,30.18
2022-08-18T00:01:15.083Z,30.13
2022-08-18T00:02:35.691Z,30.13
2022-08-18T00:03:53.371Z,30.03
2022-08-18T00:04:35.537Z,30.13
2022-08-18T00:05:14.804Z,30.08
2022-08-18T00:06:14.609Z,30.15
2022-08-18T00:07:14.571Z,30.13
2022-08-18T00:08:38.486Z,30.10
2022-08-18T00:09:14.562Z,30.15
2022-08-18T00:10:18.702Z,30.13
2022-08-18T00:11:15.110Z,30.13
2022-08-18T00:12:14.558Z,30.13
2022-08-18T00:13:14.555Z,30.08
2022-08-18T00:14:35.508Z,30.18
2022-08-18T00:15:14.496Z,30.19
2022-08-18T00:16:14.475Z,30.21
2022-08-18T00:17:14.486Z,30.12
2022-08-18T00:18:14.447Z,30.19
2022-08-18T00:19:14.432Z,30.21
2022-08-18T00:20:35.430Z,30.12
2022-08-18T00:21:14.408Z,30.19
2022-08-18T00:22:14.926Z,30.19
2022-08-18T00:23:14.374Z,30.19
2022-08-18T00:24:14.372Z,30.19
2022-08-18T00:25:14.341Z,30.13
2022-08-18T00:26:37.096Z,30.09
2022-08-18T00:27:14.358Z,30.05
2022-08-18T00:28:14.357Z,30.13
2022-08-18T00:29:14.304Z,30.16
2022-08-18T00:30:14.301Z,30.08
2022-08-18T00:31:14.273Z,30.03
2022-08-18T00:32:35.281Z,30.03
2022-08-18T00:33:14.292Z,29.97
2022-08-18T00:34:14.240Z,30.08
2022-08-18T00:35:14.273Z,30.06
2022-08-18T00:36:14.210Z,30.05
2022-08-18T00:37:14.206Z,30.03
2022-08-18T00:38:36.139Z,30.02
2022-08-18T00:39:14.171Z,30.05
2022-08-18T00:40:14.246Z,30.06
2022-08-18T00:41:14.160Z,29.97
2022-08-18T00:42:14.149Z,30.09
2022-08-18T00:43:14.153Z,30.00
2022-08-18T00:44:35.155Z,30.05
2022-08-18T00:45:14.106Z,30.06
2022-08-18T00:46:14.105Z,30.00
2022-08-18T00:47:14.096Z,30.05
2022-08-18T00:48:14.604Z,30.00
2022-08-18T00:49:14.085Z,30.05
2022-08-18T00:50:35.071Z,30.09
2022-08-18T00:51:14.054Z,30.00
2022-08-18T00:52:14.006Z,30.05
2022-08-18T00:53:16.630Z,29.97
2022-08-18T00:54:14.006Z,30.10
2022-08-18T00:55:13.969Z,30.00
2022-08-18T00:56:34.964Z,30.00
2022-08-18T00:57:13.943Z,30.02
2022-08-18T00:58:13.940Z,29.97
2022-08-18T00:59:13.942Z,30.03
2022-08-18T01:00:13.903Z,29.97
2022-08-18T01:01:14.020Z,30.06
2022-08-18T01:02:34.897Z,30.05
2022-08-18T01:03:13.883Z,30.15
2022-08-18T01:04:13.888Z,30.02
2022-08-18T01:05:13.873Z,30.00
2022-08-18T01:06:13.851Z,30.00
2022-08-18T01:07:13.819Z,29.98
2022-08-18T01:08:34.811Z,30.05
2022-08-18T01:09:13.831Z,30.03
2022-08-18T01:10:13.811Z,30.00
2022-08-18T01:11:13.768Z,30.16
2022-08-18T01:12:44.877Z,30.03
2022-08-18T01:13:13.759Z,30.10
2022-08-18T01:14:34.735Z,30.13
2022-08-18T01:15:27.474Z,30.08
2022-08-18T01:16:13.760Z,30.08
2022-08-18T01:17:13.725Z,30.06
2022-08-18T01:18:13.714Z,30.03
2022-08-18T01:19:13.675Z,30.06
2022-08-18T01:20:34.687Z,30.12
2022-08-18T01:21:13.652Z,30.03
2022-08-18T01:22:13.644Z,30.02
2022-08-18T01:23:13.666Z,30.13
2022-08-18T01:24:16.405Z,30.16
2022-08-18T01:25:14.141Z,30.13
2022-08-18T01:26:34.605Z,30.19
2022-08-18T01:27:13.574Z,30.23
2022-08-18T01:28:13.595Z,30.21
2022-08-18T01:29:18.992Z,30.15
2022-08-18T01:30:13.549Z,30.13
2022-08-18T01:31:13.560Z,30.21
2022-08-18T01:32:34.556Z,30.23
2022-08-18T01:33:13.554Z,30.21
2022-08-18T01:34:13.492Z,30.30
2022-08-18T01:35:13.487Z,30.24
2022-08-18T01:36:13.471Z,30.19
2022-08-18T01:37:13.453Z,30.19
2022-08-18T01:38:34.445Z,30.28
2022-08-18T01:39:13.443Z,30.19
2022-08-18T01:41:25.076Z,30.25
2022-08-18T01:41:26.734Z,30.23
2022-08-18T01:42:13.534Z,30.19
2022-08-18T01:43:13.372Z,30.18
2022-08-18T01:44:34.371Z,30.13
2022-08-18T01:45:13.352Z,30.19
2022-08-18T01:46:14.157Z,30.18
2022-08-18T01:47:13.341Z,30.13
2022-08-18T01:48:13.309Z,30.19
2022-08-18T01:49:13.332Z,30.13
2022-08-18T01:50:34.358Z,30.24
2022-08-18T01:51:13.282Z,30.18
2022-08-18T01:52:13.274Z,30.18
2022-08-18T01:53:13.279Z,30.15
2022-08-18T01:54:13.281Z,30.21
2022-08-18T01:55:14.823Z,30.13
2022-08-18T01:56:34.252Z,30.15
2022-08-18T01:57:13.212Z,30.12
2022-08-18T01:58:13.214Z,30.08
2022-08-18T01:59:13.181Z,30.05
2022-08-18T02:00:13.183Z,30.09
2022-08-18T02:01:13.232Z,30.05
2022-08-18T02:02:34.162Z,30.03
2022-08-18T02:03:13.142Z,30.02
2022-08-18T02:04:33.903Z,29.97
2022-08-18T02:05:13.106Z,29.98
2022-08-18T02:06:13.872Z,30.02
2022-08-18T02:07:13.083Z,29.98
2022-08-18T02:08:34.089Z,30.00
2022-08-18T02:09:13.038Z,30.03
2022-08-18T02:10:13.240Z,30.10
2022-08-18T02:11:13.050Z,30.00
2022-08-18T02:12:13.012Z,30.08
2022-08-18T02:13:13.683Z,30.08
2022-08-18T02:14:34.008Z,29.95
2022-08-18T02:15:13.017Z,30.03
2022-08-18T02:16:12.970Z,30.03
2022-08-18T02:17:12.950Z,30.03
2022-08-18T02:18:13.064Z,30.08
2022-08-18T02:19:12.949Z,30.00
2022-08-18T02:20:33.940Z,30.02
2022-08-18T02:21:12.928Z,30.02
2022-08-18T02:22:12.877Z,29.98
2022-08-18T02:23:12.886Z,29.93
2022-08-18T02:24:12.894Z,29.94
2022-08-18T02:25:12.851Z,29.95
2022-08-18T02:26:33.845Z,29.90
2022-08-18T02:27:12.813Z,29.93
2022-08-18T02:28:12.820Z,29.87
2022-08-18T02:29:12.829Z,29.88
2022-08-18T02:30:12.812Z,29.97
2022-08-18T02:31:12.780Z,30.03
2022-08-18T02:32:33.835Z,29.91
2022-08-18T02:33:12.764Z,29.97
2022-08-18T02:34:12.773Z,29.93
2022-08-18T02:35:12.740Z,29.97
2022-08-18T02:36:12.712Z,29.87
2022-08-18T02:37:15.429Z,29.98
2022-08-18T02:38:33.720Z,29.88
2022-08-18T02:39:12.690Z,29.86
2022-08-18T02:40:14.845Z,29.88
2022-08-18T02:41:12.649Z,29.84
2022-08-18T02:42:12.694Z,29.88
2022-08-18T02:43:12.648Z,29.81
2022-08-18T02:44:33.662Z,29.84
2022-08-18T02:45:12.628Z,29.84
2022-08-18T02:46:12.635Z,29.81
2022-08-18T02:47:12.592Z,29.76
2022-08-18T02:48:12.594Z,29.78
2022-08-18T02:49:12.566Z,29.84
2022-08-18T02:50:33.567Z,29.82
2022-08-18T02:51:12.582Z,29.75
2022-08-18T02:52:12.516Z,29.79
2022-08-18T02:53:12.541Z,29.79
2022-08-18T02:54:12.500Z,29.82
2022-08-18T02:55:13.198Z,29.87
2022-08-18T02:56:41.802Z,29.94
2022-08-18T02:57:12.454Z,29.90
2022-08-18T02:58:12.468Z,29.88
2022-08-18T02:59:12.505Z,29.94
2022-08-18T03:00:12.598Z,29.98
2022-08-18T03:01:12.466Z,30.05
2022-08-18T03:02:33.411Z,30.05
2022-08-18T03:03:12.398Z,30.05
2022-08-18T03:04:12.471Z,30.05
2022-08-18T03:05:14.627Z,29.98
2022-08-18T03:06:12.381Z,30.13
2022-08-18T03:07:12.351Z,30.18
2022-08-18T03:08:33.351Z,30.19
2022-08-18T03:09:12.355Z,30.15
2022-08-18T03:10:33.166Z,30.23
2022-08-18T03:11:12.302Z,30.16
2022-08-18T03:12:12.372Z,30.16
2022-08-18T03:13:12.259Z,30.24
2022-08-18T03:14:33.299Z,30.28
2022-08-18T03:15:12.282Z,30.27
2022-08-18T03:16:12.222Z,30.27
2022-08-18T03:17:12.348Z,30.28
2022-08-18T03:18:12.240Z,30.27
2022-08-18T03:19:12.192Z,30.28
2022-08-18T03:20:33.226Z,30.23
2022-08-18T03:21:12.157Z,30.30
2022-08-18T03:22:27.344Z,30.27
2022-08-18T03:23:12.188Z,30.24
2022-08-18T03:24:12.125Z,30.16
2022-08-18T03:25:12.111Z,30.27
2022-08-18T03:26:33.158Z,30.28
2022-08-18T03:27:12.101Z,30.25
2022-08-18T03:28:12.088Z,30.27
2022-08-18T03:29:12.071Z,30.27
2022-08-18T03:30:12.109Z,30.27
2022-08-18T03:31:12.065Z,30.31
2022-08-18T03:32:33.709Z,30.27
2022-08-18T03:33:12.048Z,30.37
2022-08-18T03:34:12.700Z,30.27
2022-08-18T03:35:12.036Z,30.32
2022-08-18T03:36:12.025Z,30.27
2022-08-18T03:37:11.964Z,30.27
2022-08-18T03:38:33.726Z,30.27
2022-08-18T03:39:11.973Z,30.32
2022-08-18T03:40:12.015Z,30.27
2022-08-18T03:41:11.987Z,30.28
2022-08-18T03:42:12.589Z,30.27
2022-08-18T03:43:33.414Z,30.10
2022-08-18T03:44:32.910Z,30.18
2022-08-18T03:45:13.096Z,30.18
2022-08-18T03:46:11.979Z,30.19
2022-08-18T03:47:11.940Z,30.21
2022-08-18T03:48:11.945Z,30.27
2022-08-18T03:49:11.878Z,30.21
2022-08-18T03:50:32.855Z,30.23
2022-08-18T03:51:11.807Z,30.16
2022-08-18T03:52:11.827Z,30.18
2022-08-18T03:53:11.773Z,30.24
2022-08-18T03:54:12.596Z,30.27
2022-08-18T03:55:11.751Z,30.27
2022-08-18T03:56:32.782Z,30.27
2022-08-18T03:57:11.714Z,30.31
2022-08-18T03:58:11.696Z,30.27
2022-08-18T03:59:11.704Z,30.28
2022-08-18T04:00:11.702Z,30.43
2022-08-18T04:01:11.750Z,30.37
2022-08-18T04:02:32.709Z,30.46
2022-08-18T04:03:11.656Z,30.44
2022-08-18T04:04:12.318Z,30.34
2022-08-18T04:05:11.632Z,30.39
2022-08-18T04:06:12.706Z,30.37
2022-08-18T04:07:11.616Z,30.30
2022-08-18T04:08:32.630Z,30.30
2022-08-18T04:09:11.571Z,30.27
2022-08-18T04:10:14.065Z,30.25
2022-08-18T04:11:11.582Z,30.30
2022-08-18T04:12:11.595Z,30.30
2022-08-18T04:13:12.190Z,30.32
2022-08-18T04:14:32.526Z,30.18
2022-08-18T04:15:11.507Z,30.18
2022-08-18T04:16:11.521Z,30.16
2022-08-18T04:17:11.519Z,30.15
2022-08-18T04:18:11.745Z,30.15
2022-08-18T04:19:11.475Z,30.18
2022-08-18T04:20:32.440Z,30.16
2022-08-18T04:21:11.476Z,30.16
2022-08-18T04:22:11.450Z,30.25
2022-08-18T04:23:11.436Z,30.23
2022-08-18T04:24:11.421Z,30.15
2022-08-18T04:25:11.371Z,30.15
2022-08-18T04:26:32.376Z,30.25
2022-08-18T04:27:11.362Z,30.23
2022-08-18T04:28:11.379Z,30.19
2022-08-18T04:29:11.314Z,30.19
2022-08-18T04:30:11.307Z,30.21
2022-08-18T04:31:11.318Z,30.16
2022-08-18T04:32:32.305Z,30.13
2022-08-18T04:33:11.315Z,30.24
2022-08-18T04:34:11.288Z,30.24
2022-08-18T04:35:14.069Z,30.19
2022-08-18T04:36:11.240Z,30.19
2022-08-18T04:37:11.252Z,30.18
2022-08-18T04:38:32.248Z,30.16
2022-08-18T04:39:11.267Z,30.28
2022-08-18T04:40:11.328Z,30.24
2022-08-18T04:41:11.179Z,30.16
2022-08-18T04:42:11.180Z,30.28
2022-08-18T04:43:11.175Z,30.16
2022-08-18T04:44:32.194Z,30.25
2022-08-18T04:45:11.124Z,30.19
2022-08-18T04:46:11.154Z,30.16
2022-08-18T04:47:11.129Z,30.23
2022-08-18T04:48:11.123Z,30.30
2022-08-18T04:49:11.165Z,30.28
2022-08-18T04:50:32.175Z,30.27
2022-08-18T04:51:11.054Z,30.32
2022-08-18T04:52:38.972Z,30.27
2022-08-18T04:53:11.045Z,30.39
2022-08-18T04:54:11.035Z,30.27
2022-08-18T04:55:11.105Z,30.27
2022-08-18T04:56:32.047Z,30.27
2022-08-18T04:57:11.071Z,30.31
2022-08-18T04:58:10.982Z,30.28
2022-08-18T04:59:10.971Z,30.34
2022-08-18T05:00:11.004Z,30.35
2022-08-18T05:01:11.007Z,30.43
2022-08-18T05:02:31.919Z,30.48
2022-08-18T05:03:10.917Z,30.43
2022-08-18T05:04:10.920Z,30.37
2022-08-18T05:05:10.910Z,30.39
2022-08-18T05:06:10.914Z,30.46
2022-08-18T05:07:10.904Z,30.37
2022-08-18T05:08:31.842Z,30.37
2022-08-18T05:09:10.850Z,30.40
2022-08-18T05:10:10.912Z,30.47
2022-08-18T05:11:10.836Z,30.48
2022-08-18T05:12:10.867Z,30.39
2022-08-18T05:13:10.784Z,30.47
2022-08-18T05:14:32.770Z,30.51
2022-08-18T05:15:10.796Z,30.47
2022-08-18T05:16:14.818Z,30.50
2022-08-18T05:17:10.763Z,30.46
2022-08-18T05:18:10.726Z,30.46
2022-08-18T05:19:10.725Z,30.53
2022-08-18T05:20:31.725Z,30.53
2022-08-18T05:21:10.699Z,30.51
2022-08-18T05:22:10.715Z,30.57
2022-08-18T05:23:10.660Z,30.59
2022-08-18T05:24:11.283Z,30.59
2022-08-18T05:25:10.663Z,30.63
2022-08-18T05:26:31.654Z,30.62
2022-08-18T05:27:10.633Z,30.65
2022-08-18T05:28:10.596Z,30.65
2022-08-18T05:29:18.409Z,30.77
2022-08-18T05:30:10.592Z,30.75
2022-08-18T05:31:13.639Z,30.72
2022-08-18T05:32:47.187Z,30.78
2022-08-18T05:33:10.612Z,30.75
2022-08-18T05:34:10.531Z,30.75
2022-08-18T05:35:10.541Z,30.85
2022-08-18T05:36:10.545Z,30.88
2022-08-18T05:37:10.526Z,30.92
2022-08-18T05:38:31.613Z,30.94
2022-08-18T05:39:10.467Z,30.90
2022-08-18T05:40:11.658Z,30.88
2022-08-18T05:41:14.058Z,30.99
2022-08-18T05:42:10.536Z,31.05
2022-08-18T05:43:10.440Z,31.00
2022-08-18T05:44:31.513Z,31.07
2022-08-18T05:45:10.437Z,31.14
2022-08-18T05:46:10.387Z,31.10
2022-08-18T05:47:10.393Z,31.12
2022-08-18T05:48:10.373Z,31.15
2022-08-18T05:49:10.389Z,31.12
2022-08-18T05:50:31.401Z,31.17
2022-08-18T05:51:10.321Z,31.10
2022-08-18T05:52:11.351Z,31.17
2022-08-18T05:53:13.238Z,31.18
2022-08-18T05:54:10.338Z,31.18
2022-08-18T05:55:10.367Z,31.17
2022-08-18T05:56:31.346Z,31.27
2022-08-18T05:57:10.265Z,31.27
2022-08-18T05:58:10.322Z,31.31
2022-08-18T05:59:10.274Z,31.20
2022-08-18T06:00:10.238Z,31.31
2022-08-18T06:01:10.241Z,31.31
2022-08-18T06:02:31.289Z,31.31
2022-08-18T06:03:10.262Z,31.31
2022-08-18T06:04:10.206Z,31.31
2022-08-18T06:05:10.212Z,31.42
2022-08-18T06:06:11.178Z,31.40
2022-08-18T06:07:10.139Z,31.43
2022-08-18T06:08:31.242Z,31.44
2022-08-18T06:09:10.153Z,31.42
2022-08-18T06:10:10.119Z,31.43
2022-08-18T06:11:17.313Z,31.58
2022-08-18T06:12:10.080Z,31.61
2022-08-18T06:13:10.080Z,31.49
2022-08-18T06:14:31.062Z,31.55
2022-08-18T06:15:10.066Z,31.59
2022-08-18T06:16:10.075Z,31.65
2022-08-18T06:17:10.052Z,31.66
2022-08-18T06:18:10.010Z,31.76
2022-08-18T06:19:10.003Z,31.71
2022-08-18T06:20:31.023Z,31.81
2022-08-18T06:21:10.006Z,31.81
2022-08-18T06:22:09.978Z,31.77
2022-08-18T06:23:09.989Z,31.80
2022-08-18T06:24:09.946Z,31.81
2022-08-18T06:25:09.937Z,31.84
2022-08-18T06:26:31.820Z,31.89
2022-08-18T06:27:09.921Z,31.87
2022-08-18T06:28:09.952Z,31.92
2022-08-18T06:29:09.963Z,31.99
2022-08-18T06:30:09.906Z,31.94
2022-08-18T06:31:10.850Z,32.01
2022-08-18T06:32:30.874Z,31.97
2022-08-18T06:33:09.883Z,32.07
2022-08-18T06:34:09.878Z,32.09
2022-08-18T06:35:09.899Z,32.11
2022-08-18T06:36:09.811Z,32.18
2022-08-18T06:37:09.819Z,32.22
2022-08-18T06:38:30.819Z,32.31
2022-08-18T06:39:09.819Z,32.43
2022-08-18T06:40:09.854Z,32.51
2022-08-18T06:41:09.797Z,32.40
2022-08-18T06:42:09.758Z,32.60
2022-08-18T06:43:09.772Z,32.63
2022-08-18T06:44:30.774Z,32.71
2022-08-18T06:45:09.769Z,32.77
2022-08-18T06:46:09.709Z,32.86
2022-08-18T06:47:09.787Z,32.90
2022-08-18T06:48:12.668Z,33.00
2022-08-18T06:49:09.699Z,33.07
2022-08-18T06:50:30.694Z,33.12
2022-08-18T06:51:09.669Z,33.17
2022-08-18T06:52:09.688Z,33.15
2022-08-18T06:53:27.501Z,33.14
2022-08-18T06:54:09.630Z,33.15
2022-08-18T06:55:09.651Z,33.19
2022-08-18T06:56:30.690Z,33.28
2022-08-18T06:57:09.607Z,33.27
2022-08-18T06:58:09.581Z,33.23
2022-08-18T06:59:09.615Z,33.27
2022-08-18T07:00:09.569Z,33.31
2022-08-18T07:01:09.613Z,33.31
2022-08-18T07:02:30.581Z,33.40
2022-08-18T07:03:09.573Z,33.31
2022-08-18T07:04:09.583Z,33.43
2022-08-18T07:05:09.554Z,33.42
2022-08-18T07:06:10.369Z,33.42
2022-08-18T07:07:09.530Z,33.43
2022-08-18T07:08:30.514Z,33.53
2022-08-18T07:09:09.483Z,33.68
2022-08-18T07:10:09.491Z,33.57
2022-08-18T07:11:09.443Z,33.61
2022-08-18T07:12:09.443Z,33.73
2022-08-18T07:13:09.450Z,33.71
2022-08-18T07:14:30.449Z,33.81
2022-08-18T07:15:09.445Z,33.80
2022-08-18T07:16:09.401Z,33.95
2022-08-18T07:17:10.386Z,33.92
2022-08-18T07:18:09.384Z,33.98
2022-08-18T07:19:09.450Z,33.99
2022-08-18T07:20:30.386Z,34.03
2022-08-18T07:21:09.359Z,34.06
2022-08-18T07:22:09.374Z,34.06
2022-08-18T07:23:09.373Z,34.13
2022-08-18T07:24:24.377Z,34.23
2022-08-18T07:25:09.340Z,34.23
2022-08-18T07:26:30.322Z,34.21
2022-08-18T07:27:09.338Z,34.20
2022-08-18T07:28:09.337Z,34.23
2022-08-18T07:29:09.264Z,34.20
2022-08-18T07:30:09.270Z,34.23
2022-08-18T07:31:16.847Z,34.30
2022-08-18T07:32:30.865Z,34.33
2022-08-18T07:33:09.236Z,34.30
2022-08-18T07:34:09.244Z,34.39
2022-08-18T07:35:09.249Z,34.40
2022-08-18T07:36:09.206Z,34.40
2022-08-18T07:37:09.226Z,34.36
2022-08-18T07:38:44.638Z,34.38
2022-08-18T07:39:09.212Z,34.50
2022-08-18T07:40:09.243Z,34.54
2022-08-18T07:41:09.228Z,34.52
2022-08-18T07:42:09.147Z,34.52
2022-08-18T07:43:09.166Z,34.57
2022-08-18T07:44:30.142Z,34.64
2022-08-18T07:45:09.147Z,34.73
2022-08-18T07:46:09.165Z,34.73
2022-08-18T07:47:09.212Z,34.75
2022-08-18T07:48:27.469Z,34.81
2022-08-18T07:49:09.195Z,34.89
2022-08-18T07:50:57.426Z,34.96
2022-08-18T07:51:09.199Z,34.93
2022-08-18T07:52:35.831Z,34.90
2022-08-18T07:53:09.065Z,34.96
2022-08-18T07:54:20.082Z,34.99
2022-08-18T07:55:09.950Z,35.04
2022-08-18T07:56:30.038Z,35.04
2022-08-18T07:57:09.082Z,34.96
2022-08-18T07:58:09.042Z,35.04
2022-08-18T07:59:09.877Z,35.10
2022-08-18T08:00:11.228Z,35.15
2022-08-18T08:01:08.985Z,35.12
2022-08-18T08:02:30.020Z,35.15
2022-08-18T08:03:09.880Z,35.12
2022-08-18T08:04:08.974Z,35.22
2022-08-18T08:05:08.951Z,35.15
2022-08-18T08:06:08.958Z,35.18
2022-08-18T08:07:25.554Z,35.23
2022-08-18T08:08:29.957Z,35.33
2022-08-18T08:09:08.916Z,35.41
2022-08-18T08:10:08.933Z,35.55
2022-08-18T08:11:08.921Z,35.53
2022-08-18T08:12:08.887Z,35.52
2022-08-18T08:13:09.955Z,35.60
2022-08-18T08:14:29.902Z,35.66
2022-08-18T08:15:08.858Z,35.66
2022-08-18T08:16:09.375Z,35.71
2022-08-18T08:17:08.862Z,35.79
2022-08-18T08:18:08.838Z,35.85
2022-08-18T08:19:12.566Z,35.92
2022-08-18T08:20:32.968Z,35.95
2022-08-18T08:21:08.797Z,35.98
2022-08-18T08:22:08.809Z,36.08
2022-08-18T08:23:08.814Z,36.16
2022-08-18T08:24:08.806Z,36.14
2022-08-18T08:25:22.732Z,36.27
2022-08-18T08:26:29.776Z,36.23
2022-08-18T08:27:08.788Z,36.33
2022-08-18T08:28:08.740Z,36.25
2022-08-18T08:29:08.750Z,36.33
2022-08-18T08:30:08.758Z,36.42
2022-08-18T08:31:33.158Z,36.40
2022-08-18T08:32:29.711Z,36.37
2022-08-18T08:33:08.721Z,36.35
2022-08-18T08:34:08.775Z,36.42
2022-08-18T08:35:12.724Z,36.46
2022-08-18T08:36:08.780Z,36.46
2022-08-18T08:37:08.702Z,36.43
2022-08-18T08:38:42.453Z,36.46
2022-08-18T08:39:08.664Z,36.42
2022-08-18T08:40:08.724Z,36.40
2022-08-18T08:41:08.637Z,36.45
2022-08-18T08:42:29.687Z,36.39
2022-08-18T08:43:08.640Z,36.37
2022-08-18T08:44:30.402Z,36.43
2022-08-18T08:45:08.645Z,36.43
2022-08-18T08:46:08.641Z,36.46
2022-08-18T08:47:08.612Z,36.45
2022-08-18T08:48:09.720Z,36.40
2022-08-18T08:49:08.582Z,36.52
2022-08-18T08:50:29.586Z,36.51
2022-08-18T08:51:08.586Z,36.57
2022-08-18T08:52:08.587Z,36.62
2022-08-18T08:53:08.616Z,36.55
2022-08-18T08:54:08.557Z,36.68
2022-08-18T08:55:08.550Z,36.73
2022-08-18T08:56:29.525Z,36.73
2022-08-18T08:57:09.859Z,36.83
2022-08-18T08:58:08.520Z,36.91
2022-08-18T08:59:10.290Z,36.95
2022-08-18T09:00:08.541Z,36.98
2022-08-18T09:01:08.500Z,37.07
2022-08-18T09:02:47.249Z,37.06
2022-08-18T09:03:08.494Z,37.14
2022-08-18T09:04:09.398Z,37.15
2022-08-18T09:05:09.858Z,37.15
2022-08-18T09:06:08.537Z,37.08
2022-08-18T09:07:08.503Z,37.13
2022-08-18T09:08:29.440Z,37.23
2022-08-18T09:09:08.449Z,37.11
2022-08-18T09:10:08.403Z,37.11
2022-08-18T09:11:08.928Z,37.13
2022-08-18T09:12:08.421Z,37.23
2022-08-18T09:13:08.421Z,37.18
2022-08-18T09:14:29.401Z,37.21
2022-08-18T09:15:08.391Z,37.21
2022-08-18T09:16:12.340Z,37.29
2022-08-18T09:17:08.362Z,37.33
2022-08-18T09:18:08.927Z,37.33
2022-08-18T09:19:08.377Z,37.35
2022-08-18T09:20:29.365Z,37.37
2022-08-18T09:21:08.988Z,37.45
2022-08-18T09:22:08.339Z,37.39
2022-08-18T09:23:08.349Z,37.40
2022-08-18T09:24:08.303Z,37.35
2022-08-18T09:25:08.318Z,37.44
2022-08-18T09:26:29.921Z,37.47
2022-08-18T09:27:08.315Z,37.53
2022-08-18T09:28:10.846Z,37.58
2022-08-18T09:29:08.286Z,37.65
2022-08-18T09:30:08.297Z,37.82
2022-08-18T09:31:08.797Z,37.89
2022-08-18T09:32:29.330Z,37.99
2022-08-18T09:33:19.113Z,38.08
2022-08-18T09:34:10.628Z,38.14
2022-08-18T09:35:08.270Z,38.27
2022-08-18T09:36:10.101Z,38.27
2022-08-18T09:37:08.244Z,38.38
2022-08-18T09:38:29.235Z,38.46
2022-08-18T09:39:08.194Z,38.40
2022-08-18T09:40:11.314Z,38.58
2022-08-18T09:41:08.237Z,38.61
2022-08-18T09:42:08.237Z,38.71
2022-08-18T09:43:09.057Z,38.84
2022-08-18T09:44:29.174Z,38.80
2022-08-18T09:45:08.173Z,38.97
2022-08-18T09:46:08.175Z,39.06
2022-08-18T09:47:08.961Z,39.12
2022-08-18T09:48:10.065Z,39.24
2022-08-18T09:49:08.438Z,39.36
2022-08-18T09:50:29.878Z,39.46
2022-08-18T09:51:08.132Z,39.44
2022-08-18T09:52:08.142Z,39.53
2022-08-18T09:53:08.094Z,39.51
2022-08-18T09:54:08.109Z,39.48
2022-08-18T09:55:09.012Z,39.49
2022-08-18T09:56:29.963Z,39.51
2022-08-18T09:57:08.111Z,39.53
2022-08-18T09:58:08.114Z,39.49
2022-08-18T09:59:10.760Z,39.53
2022-08-18T10:00:08.183Z,39.59
2022-08-18T10:01:08.083Z,39.53
2022-08-18T10:02:29.049Z,39.53
2022-08-18T10:03:08.970Z,39.59
2022-08-18T10:04:08.043Z,39.56
2022-08-18T10:05:08.019Z,39.65
2022-08-18T10:06:12.653Z,39.65
2022-08-18T10:07:08.032Z,39.63
2022-08-18T10:08:29.835Z,39.67
2022-08-18T10:09:17.975Z,39.67
2022-08-18T10:12:08.009Z,39.63
2022-08-18T10:13:07.970Z,39.56
2022-08-18T10:14:28.973Z,39.55
2022-08-18T10:15:08.016Z,39.56
2022-08-18T10:16:10.265Z,39.53
2022-08-18T10:17:24.337Z,39.58
2022-08-18T10:18:07.972Z,39.51
2022-08-18T10:19:07.963Z,39.49
2022-08-18T10:20:28.970Z,39.52
2022-08-18T10:21:07.921Z,39.46
2022-08-18T10:22:07.933Z,39.44
2022-08-18T10:23:07.937Z,39.40
2022-08-18T10:24:34.890Z,39.38
2022-08-18T10:25:22.058Z,39.44
2022-08-18T10:26:28.900Z,39.43
2022-08-18T10:27:07.911Z,39.38
2022-08-18T10:28:07.933Z,39.41
2022-08-18T10:29:07.873Z,39.43
2022-08-18T10:30:07.890Z,39.40
2022-08-18T10:31:09.807Z,39.30
2022-08-18T10:32:28.851Z,39.34
2022-08-18T10:33:17.769Z,39.31
2022-08-18T10:34:19.654Z,39.26
2022-08-18T10:35:07.867Z,39.19
2022-08-18T10:36:07.819Z,39.17
2022-08-18T10:37:07.824Z,39.11
2022-08-18T10:38:30.964Z,39.12
2022-08-18T10:39:07.789Z,39.04
2022-08-18T10:40:07.917Z,39.07
2022-08-18T10:41:15.152Z,39.00
2022-08-18T10:42:07.815Z,39.06
2022-08-18T10:43:26.727Z,39.11
2022-08-18T10:44:29.860Z,39.07
2022-08-18T10:45:07.784Z,39.24
2022-08-18T10:47:12.150Z,39.21
2022-08-18T10:48:11.956Z,39.26
2022-08-18T10:50:28.748Z,39.40
2022-08-18T10:51:07.716Z,39.34
2022-08-18T10:52:07.733Z,39.34
2022-08-18T10:53:40.848Z,39.36
2022-08-18T10:54:07.693Z,39.37
2022-08-18T10:55:10.172Z,39.36
2022-08-18T10:56:28.710Z,39.40
2022-08-18T10:57:07.694Z,39.37
2022-08-18T10:58:07.711Z,39.38
2022-08-18T10:59:07.669Z,39.33
2022-08-18T11:00:07.677Z,39.40
2022-08-18T11:01:07.692Z,39.44
2022-08-18T11:02:28.678Z,39.51
2022-08-18T11:03:42.721Z,39.51
2022-08-18T11:04:14.113Z,39.52
2022-08-18T11:06:14.487Z,39.58
2022-08-18T11:07:08.192Z,39.58
2022-08-18T11:08:29.098Z,39.65
2022-08-18T11:09:07.592Z,39.63
2022-08-18T11:10:29.377Z,39.62
2022-08-18T11:12:07.600Z,39.71
2022-08-18T11:13:09.682Z,39.72
2022-08-18T11:14:28.598Z,39.74
2022-08-18T11:16:10.291Z,39.81
2022-08-18T11:17:07.559Z,39.86
2022-08-18T11:18:10.667Z,39.93
2022-08-18T11:19:08.559Z,40.05
2022-08-18T11:20:29.531Z,39.94
2022-08-18T11:21:12.604Z,40.06
2022-08-18T11:22:07.571Z,40.06
2022-08-18T11:23:07.539Z,40.06
2022-08-18T11:24:07.585Z,40.16
2022-08-18T11:25:07.575Z,40.14
2022-08-18T11:26:28.501Z,40.24
2022-08-18T11:27:15.654Z,40.24
2022-08-18T11:28:07.493Z,40.27
2022-08-18T11:29:07.514Z,40.24
2022-08-18T11:30:07.523Z,40.23
2022-08-18T11:31:07.491Z,40.27
2022-08-18T11:32:28.487Z,40.30
2022-08-18T11:33:07.448Z,40.31
2022-08-18T11:34:08.020Z,40.33
2022-08-18T11:35:07.541Z,40.40
2022-08-18T11:36:07.462Z,40.35
2022-08-18T11:37:09.146Z,40.41
2022-08-18T11:38:29.421Z,40.46
2022-08-18T11:39:07.429Z,40.43
2022-08-18T11:40:07.489Z,40.44
2022-08-18T11:41:10.455Z,40.51
2022-08-18T11:42:08.014Z,40.38
2022-08-18T11:43:07.401Z,40.31
2022-08-18T11:44:28.413Z,40.38
2022-08-18T11:45:07.368Z,40.41
2022-08-18T11:46:07.373Z,40.43
2022-08-18T11:47:07.384Z,40.46
2022-08-18T11:48:07.424Z,40.54
2022-08-18T11:49:07.346Z,40.63
2022-08-18T11:50:28.349Z,40.69
2022-08-18T11:51:07.353Z,40.73
2022-08-18T11:52:07.967Z,40.75
2022-08-18T11:53:07.335Z,40.84
2022-08-18T11:54:07.340Z,40.99
2022-08-18T11:56:31.439Z,41.21
2022-08-18T11:58:12.552Z,41.26
2022-08-18T11:59:07.728Z,41.33
2022-08-18T12:00:07.351Z,41.31
2022-08-18T12:01:07.289Z,41.34
2022-08-18T12:02:28.326Z,41.34
2022-08-18T12:03:07.335Z,41.34
2022-08-18T12:04:07.334Z,41.31
2022-08-18T12:05:08.676Z,41.31
2022-08-18T12:06:08.080Z,41.29
2022-08-18T12:07:07.251Z,41.37
2022-08-18T12:09:07.229Z,41.33
2022-08-18T12:10:18.261Z,41.33
2022-08-18T12:11:27.266Z,41.37
2022-08-18T12:12:07.212Z,41.38
2022-08-18T12:13:07.202Z,41.43
2022-08-18T12:14:30.179Z,41.40
2022-08-18T12:15:11.902Z,41.44
2022-08-18T12:16:07.220Z,41.45
2022-08-18T12:17:07.184Z,41.47
2022-08-18T12:18:07.242Z,41.57
2022-08-18T12:19:07.192Z,41.59
2022-08-18T12:20:28.202Z,41.59
2022-08-18T12:21:07.160Z,41.53
2022-08-18T12:23:07.168Z,41.57
2022-08-18T12:24:07.173Z,41.52
2022-08-18T12:25:12.145Z,41.45
2022-08-18T12:26:43.234Z,41.41
2022-08-18T12:27:20.752Z,41.41
2022-08-18T12:28:11.089Z,41.38
2022-08-18T12:29:08.819Z,41.40
2022-08-18T12:30:07.164Z,41.40
2022-08-18T12:31:15.169Z,41.41
2022-08-18T12:34:07.140Z,41.50
2022-08-18T12:35:09.428Z,41.47
2022-08-18T12:36:07.152Z,41.44
2022-08-18T12:37:14.266Z,41.44
2022-08-18T12:38:28.177Z,41.44
2022-08-18T12:39:08.091Z,41.55
2022-08-18T12:40:07.162Z,41.43
2022-08-18T12:41:07.099Z,41.44
2022-08-18T12:42:07.052Z,41.41
2022-08-18T12:43:07.052Z,41.41
2022-08-18T12:44:28.101Z,41.41
2022-08-18T12:45:07.069Z,41.41
2022-08-18T12:46:07.022Z,41.41
2022-08-18T12:47:07.593Z,41.41
2022-08-18T12:48:07.154Z,41.40
2022-08-18T12:49:07.038Z,41.38
2022-08-18T12:50:31.296Z,41.53
2022-08-18T12:51:07.001Z,41.43
2022-08-18T12:52:07.016Z,41.57
2022-08-18T12:53:06.982Z,41.55
2022-08-18T12:54:06.971Z,41.57
2022-08-18T12:55:07.577Z,41.56
2022-08-18T12:56:27.977Z,41.52
2022-08-18T12:57:06.992Z,41.56
2022-08-18T12:58:06.948Z,41.55
2022-08-18T12:59:07.006Z,41.43
2022-08-18T13:00:07.014Z,41.44
2022-08-18T13:01:06.972Z,41.47
2022-08-18T13:02:27.966Z,41.44
2022-08-18T13:03:06.931Z,41.45
2022-08-18T13:04:12.533Z,41.43
2022-08-18T13:05:06.908Z,41.37